createdAt,value
2023-01-10T00:01:08.873Z,1.13
2023-01-10T00:03:45.830Z,1.02
2023-01-10T00:06:28.516Z,0.97
2023-01-10T00:09:07.465Z,0.90
2023-01-10T00:11:52.596Z,1.12
2023-01-10T00:14:28.004Z,0.84
2023-01-10T00:17:02.786Z,0.96
2023-01-10T00:19:35.961Z,0.82
2023-01-10T00:22:09.032Z,0.85
2023-01-10T00:24:44.097Z,0.66
2023-01-10T00:27:17.496Z,0.81
2023-01-10T00:29:51.773Z,1.13
2023-01-10T00:32:24.816Z,0.96
2023-01-10T00:34:58.656Z,0.82
2023-01-10T00:37:32.832Z,0.72
2023-01-10T00:40:08.085Z,0.89
2023-01-10T00:42:46.180Z,0.79
2023-01-10T00:45:21.570Z,0.76
2023-01-10T00:47:54.876Z,0.74
2023-01-10T00:50:29.289Z,0.60
2023-01-10T00:53:03.525Z,0.54
2023-01-10T00:55:37.705Z,0.54
2023-01-10T00:58:16.811Z,0.54
2023-01-10T01:00:53.240Z,0.63
2023-01-10T01:03:29.195Z,0.80
2023-01-10T01:06:08.115Z,0.54
2023-01-10T01:08:48.338Z,0.46
2023-01-10T01:11:27.197Z,0.61
2023-01-10T01:14:06.697Z,0.58
2023-01-10T01:16:51.268Z,0.68
2023-01-10T01:19:28.122Z,0.55
2023-01-10T01:22:07.906Z,0.54
2023-01-10T01:24:48.793Z,0.63
2023-01-10T01:27:26.491Z,0.67
2023-01-10T01:30:12.929Z,0.52
2023-01-10T01:32:58.356Z,0.62
2023-01-10T01:35:51.143Z,0.63
2023-01-10T01:38:43.870Z,0.65
2023-01-10T01:41:36.489Z,0.59
2023-01-10T01:45:10.712Z,0.53
2023-01-10T01:48:34.082Z,0.41
2023-01-10T01:51:30.973Z,0.61
2023-01-10T01:54:23.856Z,0.66
2023-01-10T01:57:23.549Z,0.63
2023-01-10T02:00:16.396Z,0.59
2023-01-10T02:03:09.579Z,0.64
2023-01-10T02:06:02.240Z,0.74
2023-01-10T02:09:21.141Z,0.68
2023-01-10T02:12:15.177Z,0.53
2023-01-10T02:15:10.135Z,0.61
2023-01-10T02:18:04.378Z,0.58
2023-01-10T02:21:50.231Z,0.73
2023-01-10T02:25:05.259Z,0.68
2023-01-10T02:28:20.487Z,0.87
2023-01-10T02:31:34.466Z,0.69
2023-01-10T02:34:47.437Z,0.73
2023-01-10T02:37:59.993Z,0.70
2023-01-10T02:41:01.487Z,0.96
2023-01-10T02:44:25.277Z,0.97
2023-01-10T02:47:17.870Z,0.85
2023-01-10T02:50:42.721Z,0.76
2023-01-10T02:53:43.956Z,0.82
2023-01-10T02:56:36.448Z,0.55
2023-01-10T02:59:47.623Z,0.60
2023-01-10T03:02:46.084Z,0.57
2023-01-10T03:05:57.259Z,0.70
2023-01-10T03:09:15.217Z,0.56
2023-01-10T03:12:21.296Z,0.55
2023-01-10T03:15:18.720Z,0.65
2023-01-10T03:18:18.483Z,0.55
2023-01-10T03:21:12.764Z,0.63
2023-01-10T03:24:18.881Z,0.69
2023-01-10T03:27:20.168Z,0.52
2023-01-10T03:30:42.054Z,0.61
2023-01-10T03:33:35.867Z,0.67
2023-01-10T03:36:47.843Z,0.52
2023-01-10T03:40:06.060Z,0.69
2023-01-10T03:43:13.820Z,0.72
2023-01-10T03:46:18.064Z,0.59
2023-01-10T03:49:13.878Z,0.52
2023-01-10T03:52:11.246Z,0.41
2023-01-10T03:55:05.578Z,0.60
2023-01-10T03:57:58.322Z,0.60
2023-01-10T04:00:50.990Z,0.52
2023-01-10T04:03:43.726Z,0.59
2023-01-10T04:06:36.382Z,0.50
2023-01-10T04:09:28.996Z,0.46
2023-01-10T04:12:21.676Z,0.63
2023-01-10T04:15:14.343Z,0.44
2023-01-10T04:18:07.076Z,0.57
2023-01-10T04:20:59.646Z,0.55
2023-01-10T04:23:52.246Z,0.76
2023-01-10T04:26:44.855Z,0.58
2023-01-10T04:29:37.469Z,0.66
2023-01-10T04:32:30.112Z,0.65
2023-01-10T04:35:22.674Z,0.70
2023-01-10T04:38:15.612Z,0.72
2023-01-10T04:41:09.780Z,0.64
2023-01-10T04:44:02.373Z,0.74
2023-01-10T04:46:54.929Z,0.65
2023-01-10T04:49:47.523Z,0.88
2023-01-10T04:52:40.110Z,0.76
2023-01-10T04:55:16.165Z,0.76
2023-01-10T04:57:49.207Z,0.94
2023-01-10T05:00:23.891Z,0.87
2023-01-10T05:02:58.944Z,0.74
2023-01-10T05:05:35.137Z,0.78
2023-01-10T05:08:08.353Z,0.81
2023-01-10T05:10:45.107Z,0.98
2023-01-10T05:13:18.883Z,0.85
2023-01-10T05:15:57.198Z,0.91
2023-01-10T05:18:32.120Z,0.87
2023-01-10T05:21:08.642Z,0.69
2023-01-10T05:23:46.940Z,0.84
2023-01-10T05:26:24.651Z,0.80
2023-01-10T05:29:05.402Z,1.10
2023-01-10T05:31:39.426Z,1.04
2023-01-10T05:34:21.222Z,1.04
2023-01-10T05:37:13.167Z,0.95
2023-01-10T05:39:55.230Z,1.01
2023-01-10T05:42:41.257Z,1.06
2023-01-10T05:45:26.036Z,1.23
2023-01-10T05:48:09.857Z,1.06
2023-01-10T05:50:54.115Z,1.15
2023-01-10T05:53:36.292Z,1.02
2023-01-10T05:56:19.671Z,0.79
2023-01-10T05:59:16.985Z,1.11
2023-01-10T06:02:01.766Z,0.99
2023-01-10T06:04:53.990Z,0.95
2023-01-10T06:07:46.577Z,0.99
2023-01-10T06:10:31.994Z,1.09
2023-01-10T06:13:17.996Z,1.00
2023-01-10T06:16:03.234Z,1.23
2023-01-10T06:18:46.156Z,1.08
2023-01-10T06:21:32.252Z,1.19
2023-01-10T06:24:21.154Z,0.97
2023-01-10T06:27:13.991Z,1.17
2023-01-10T06:29:47.016Z,1.34
2023-01-10T06:32:40.619Z,1.35
2023-01-10T06:35:35.042Z,1.27
2023-01-10T06:38:27.658Z,1.11
2023-01-10T06:41:18.508Z,1.44
2023-01-10T06:44:11.065Z,1.30
2023-01-10T06:47:04.027Z,1.61
2023-01-10T06:49:56.618Z,1.51
2023-01-10T06:52:41.242Z,1.27
2023-01-10T06:55:33.955Z,1.18
2023-01-10T06:58:24.416Z,1.14
2023-01-10T07:01:19.100Z,1.11
2023-01-10T07:04:11.810Z,1.00
2023-01-10T07:07:04.470Z,1.11
2023-01-10T07:09:54.564Z,1.19
2023-01-10T07:12:47.123Z,1.25
2023-01-10T07:15:39.665Z,1.16
2023-01-10T07:18:34.838Z,1.19
2023-01-10T07:21:27.548Z,1.17
2023-01-10T07:24:17.306Z,1.26
2023-01-10T07:27:09.843Z,1.41
2023-01-10T07:29:55.814Z,1.41
2023-01-10T07:32:56.782Z,1.33
2023-01-10T07:35:49.426Z,1.19
2023-01-10T07:38:42.298Z,1.16
2023-01-10T07:41:35.414Z,1.36
2023-01-10T07:44:29.142Z,1.18
2023-01-10T07:47:22.059Z,1.02
2023-01-10T07:50:15.665Z,1.17
2023-01-10T07:53:09.787Z,1.21
2023-01-10T07:56:04.226Z,1.37
2023-01-10T07:58:56.784Z,1.09
2023-01-10T08:01:49.442Z,1.31
2023-01-10T08:04:41.990Z,1.29
2023-01-10T08:07:34.612Z,1.24
2023-01-10T08:10:27.613Z,1.25
2023-01-10T08:13:20.443Z,1.10
2023-01-10T08:16:13.919Z,1.39
2023-01-10T08:19:06.654Z,1.23
2023-01-10T08:21:59.247Z,1.26
2023-01-10T08:24:51.800Z,1.15
2023-01-10T08:27:44.471Z,1.40
2023-01-10T08:30:38.197Z,1.39
2023-01-10T08:33:30.800Z,1.34
2023-01-10T08:36:23.398Z,1.55
2023-01-10T08:39:16.224Z,1.58
2023-01-10T08:42:09.117Z,1.78
2023-01-10T08:45:01.843Z,1.97
2023-01-10T08:47:54.960Z,2.01
2023-01-10T08:50:47.624Z,1.93
2023-01-10T08:53:40.295Z,1.86
2023-01-10T08:56:32.918Z,2.21
2023-01-10T08:59:25.481Z,1.83
2023-01-10T09:02:18.171Z,1.75
2023-01-10T09:05:22.160Z,1.88
2023-01-10T09:08:18.810Z,1.72
2023-01-10T09:11:11.447Z,1.93
2023-01-10T09:14:04.572Z,1.82
2023-01-10T09:16:57.227Z,1.76
2023-01-10T09:19:49.804Z,1.69
2023-01-10T09:22:42.372Z,1.38
2023-01-10T09:25:35.312Z,1.44
2023-01-10T09:28:27.869Z,1.68
2023-01-10T09:31:20.489Z,1.40
2023-01-10T09:34:13.080Z,1.45
2023-01-10T09:37:05.709Z,1.62
2023-01-10T09:39:58.328Z,1.41
2023-01-10T09:43:03.754Z,1.74
2023-01-10T09:46:17.929Z,1.73
2023-01-10T09:49:37.116Z,1.70
2023-01-10T09:53:03.443Z,1.75
2023-01-10T09:55:59.348Z,1.76
2023-01-10T09:58:52.657Z,1.72
2023-01-10T10:01:48.674Z,1.86
2023-01-10T10:04:41.576Z,1.82
2023-01-10T10:07:34.601Z,1.54
2023-01-10T10:10:39.479Z,1.76
2023-01-10T10:13:59.491Z,1.88
2023-01-10T10:17:15.689Z,1.84
2023-01-10T10:20:27.011Z,1.79
2023-01-10T10:23:47.153Z,1.60
2023-01-10T10:27:02.665Z,1.52
2023-01-10T10:30:04.245Z,1.96
2023-01-10T10:33:18.104Z,1.98
2023-01-10T10:36:38.171Z,1.89
2023-01-10T10:39:39.077Z,2.11
2023-01-10T10:42:42.986Z,1.96
2023-01-10T10:45:43.107Z,2.04
2023-01-10T10:49:08.222Z,2.34
2023-01-10T10:52:09.110Z,2.17
2023-01-10T10:55:04.687Z,1.92
2023-01-10T10:58:00.451Z,1.94
2023-01-10T11:00:53.687Z,2.01
2023-01-10T11:03:58.902Z,2.04
2023-01-10T11:06:52.675Z,1.90
2023-01-10T11:09:47.620Z,2.32
2023-01-10T11:12:44.055Z,2.14
2023-01-10T11:15:45.386Z,1.98
2023-01-10T11:18:37.976Z,2.23
2023-01-10T11:21:30.874Z,2.03
2023-01-10T11:24:03.818Z,1.88
2023-01-10T11:26:38.736Z,1.93
2023-01-10T11:29:25.294Z,2.01
2023-01-10T11:31:59.602Z,1.85
2023-01-10T11:34:36.504Z,2.01
2023-01-10T11:37:19.083Z,1.83
2023-01-10T11:40:24.791Z,1.92
2023-01-10T11:43:00.023Z,2.18
2023-01-10T11:45:34.556Z,2.02
2023-01-10T11:48:34.268Z,2.16
2023-01-10T11:51:29.633Z,1.86
2023-01-10T11:54:06.047Z,2.06
2023-01-10T11:56:40.524Z,2.22
2023-01-10T11:59:17.563Z,2.20
2023-01-10T12:02:36.776Z,2.23
2023-01-10T12:05:23.077Z,2.22
2023-01-10T12:08:03.352Z,2.16
2023-01-10T12:10:38.341Z,2.09
2023-01-10T12:13:17.203Z,1.83
2023-01-10T12:16:22.324Z,1.83
2023-01-10T12:19:15.056Z,1.99
2023-01-10T12:22:14.866Z,2.28
2023-01-10T12:24:59.965Z,1.93
2023-01-10T12:27:48.719Z,1.87
2023-01-10T12:30:42.771Z,1.75
2023-01-10T12:33:45.768Z,1.83
2023-01-10T12:36:32.081Z,1.75
2023-01-10T12:39:31.168Z,1.49
2023-01-10T12:42:18.444Z,1.79
2023-01-10T12:45:30.225Z,1.97
2023-01-10T12:49:13.893Z,2.14
2023-01-10T12:52:14.467Z,1.81
2023-01-10T12:55:00.431Z,1.87
2023-01-10T12:58:03.160Z,1.71
2023-01-10T13:00:59.886Z,1.36
2023-01-10T13:04:01.513Z,1.52
2023-01-10T13:06:55.529Z,1.39
2023-01-10T13:09:50.194Z,1.33
2023-01-10T13:12:55.717Z,1.46
2023-01-10T13:15:56.377Z,1.32
2023-01-10T13:19:10.160Z,1.58
2023-01-10T13:22:22.331Z,1.62
2023-01-10T13:25:37.007Z,1.76
2023-01-10T13:28:33.510Z,1.60
2023-01-10T13:31:30.867Z,1.83
2023-01-10T13:34:19.334Z,1.63
2023-01-10T13:37:21.008Z,1.91
2023-01-10T13:40:05.319Z,1.55
2023-01-10T13:42:38.285Z,1.58
2023-01-10T13:45:11.058Z,1.57
2023-01-10T13:47:43.653Z,1.60
2023-01-10T13:50:49.596Z,1.43
2023-01-10T13:53:22.173Z,1.61
2023-01-10T13:55:58.283Z,1.56
2023-01-10T13:58:41.904Z,1.31
2023-01-10T14:01:38.445Z,1.45
2023-01-10T14:04:58.879Z,1.69
2023-01-10T14:07:48.601Z,1.43
2023-01-10T14:10:26.187Z,1.30
2023-01-10T14:13:06.480Z,1.33
2023-01-10T14:15:42.580Z,1.43
2023-01-10T14:18:32.270Z,1.56
2023-01-10T14:21:26.024Z,1.49
2023-01-10T14:23:59.024Z,1.53
2023-01-10T14:26:39.356Z,1.53
2023-01-10T14:29:17.039Z,1.55
2023-01-10T14:31:53.058Z,1.32
2023-01-10T14:34:33.032Z,1.52
2023-01-10T14:37:22.939Z,1.57
2023-01-10T14:39:56.517Z,1.32
2023-01-10T14:42:30.534Z,1.70
2023-01-10T14:45:28.481Z,1.60
2023-01-10T14:48:24.702Z,1.63
2023-01-10T14:51:20.666Z,1.54
2023-01-10T14:54:02.728Z,1.66
2023-01-10T14:56:40.238Z,1.71
2023-01-10T14:59:45.649Z,1.57
2023-01-10T15:02:23.893Z,1.59
2023-01-10T15:04:58.525Z,1.32
2023-01-10T15:07:31.193Z,1.88
2023-01-10T15:10:21.310Z,1.91
2023-01-10T15:12:58.835Z,2.77
2023-01-10T15:15:38.201Z,2.72
2023-01-10T15:18:39.501Z,3.79
2023-01-10T15:21:15.440Z,2.93
2023-01-10T15:23:48.398Z,2.24
2023-01-10T15:26:30.688Z,1.91
2023-01-10T15:29:11.592Z,1.78
2023-01-10T15:31:44.297Z,1.49
2023-01-10T15:34:26.238Z,1.70
2023-01-10T15:37:02.210Z,1.62
2023-01-10T15:39:39.442Z,1.67
2023-01-10T15:42:12.700Z,1.61
2023-01-10T15:44:47.882Z,1.66
2023-01-10T15:47:29.424Z,1.60
2023-01-10T15:50:21.769Z,1.56
2023-01-10T15:53:12.070Z,1.61
2023-01-10T15:55:55.755Z,1.51
2023-01-10T15:58:34.407Z,1.57
2023-01-10T16:01:07.343Z,1.57
2023-01-10T16:03:53.441Z,2.06
2023-01-10T16:06:26.287Z,2.47
2023-01-10T16:09:08.671Z,2.38
2023-01-10T16:11:48.244Z,2.10
2023-01-10T16:14:21.188Z,2.49
2023-01-10T16:16:53.830Z,2.07
2023-01-10T16:19:26.544Z,2.12
2023-01-10T16:22:00.312Z,1.99
2023-01-10T16:24:36.266Z,2.12
2023-01-10T16:27:10.447Z,1.98
2023-01-10T16:29:43.024Z,1.83
2023-01-10T16:32:15.669Z,1.77
2023-01-10T16:34:48.309Z,1.83
2023-01-10T16:37:20.925Z,1.78
2023-01-10T16:39:53.519Z,1.93
2023-01-10T16:42:26.143Z,2.12
2023-01-10T16:44:58.771Z,2.04
2023-01-10T16:47:31.352Z,1.93
2023-01-10T16:50:04.134Z,2.01
2023-01-10T16:52:36.708Z,1.96
2023-01-10T16:55:18.023Z,2.06
2023-01-10T16:57:50.778Z,2.06
2023-01-10T17:00:23.488Z,1.77
2023-01-10T17:02:58.008Z,1.89
2023-01-10T17:05:30.755Z,1.90
2023-01-10T17:08:04.212Z,2.05
2023-01-10T17:10:36.863Z,1.78
2023-01-10T17:13:11.470Z,2.23
2023-01-10T17:15:44.053Z,1.83
2023-01-10T17:18:16.740Z,1.94
2023-01-10T17:20:49.311Z,2.02
2023-01-10T17:23:21.928Z,2.21
2023-01-10T17:26:03.224Z,2.29
2023-01-10T17:28:35.796Z,2.55
2023-01-10T17:31:08.821Z,2.05
2023-01-10T17:33:41.442Z,1.96
2023-01-10T17:36:14.058Z,1.85
2023-01-10T17:38:46.813Z,1.93
2023-01-10T17:41:19.461Z,2.06
2023-01-10T17:43:52.139Z,1.86
2023-01-10T17:46:24.748Z,1.84
2023-01-10T17:48:57.344Z,2.06
2023-01-10T17:51:30.103Z,2.07
2023-01-10T17:54:02.725Z,2.01
2023-01-10T17:56:35.301Z,2.03
2023-01-10T17:59:08.022Z,2.19
2023-01-10T18:01:40.729Z,2.29
2023-01-10T18:04:13.491Z,2.38
2023-01-10T18:06:46.081Z,2.99
2023-01-10T18:09:19.357Z,2.49
2023-01-10T18:11:51.972Z,2.31
2023-01-10T18:14:24.654Z,2.31
2023-01-10T18:16:57.423Z,2.24
2023-01-10T18:19:30.059Z,2.11
2023-01-10T18:22:05.291Z,2.30
2023-01-10T18:24:37.913Z,2.28
2023-01-10T18:27:10.531Z,2.29
2023-01-10T18:29:43.109Z,2.20
2023-01-10T18:32:15.928Z,2.26
2023-01-10T18:34:48.785Z,2.32
2023-01-10T18:37:21.459Z,2.27
2023-01-10T18:39:54.291Z,2.21
2023-01-10T18:42:27.028Z,2.34
2023-01-10T18:44:59.789Z,2.30
2023-01-10T18:47:32.859Z,2.23
2023-01-10T18:50:08.809Z,2.32
2023-01-10T18:52:41.497Z,2.47
2023-01-10T18:55:14.119Z,2.42
2023-01-10T18:57:46.762Z,2.54
2023-01-10T19:00:20.078Z,2.57
2023-01-10T19:02:53.337Z,2.43
2023-01-10T19:05:26.049Z,2.66
2023-01-10T19:08:01.439Z,2.64
2023-01-10T19:10:57.272Z,2.61
2023-01-10T19:13:27.929Z,2.77
2023-01-10T19:16:13.349Z,2.54
2023-01-10T19:18:52.498Z,2.49
2023-01-10T19:21:27.298Z,2.39
2023-01-10T19:24:03.754Z,2.69
2023-01-10T19:26:36.340Z,2.56
2023-01-10T19:29:08.991Z,2.65
2023-01-10T19:31:41.791Z,2.88
2023-01-10T19:34:14.396Z,2.56
2023-01-10T19:36:47.132Z,2.37
2023-01-10T19:39:19.882Z,2.57
2023-01-10T19:41:52.487Z,2.58
2023-01-10T19:44:25.061Z,2.70
2023-01-10T19:46:57.680Z,2.69
2023-01-10T19:49:31.569Z,2.64
2023-01-10T19:52:05.761Z,2.42
2023-01-10T19:54:38.397Z,2.74
2023-01-10T19:57:11.007Z,2.86
2023-01-10T19:59:43.624Z,2.67
2023-01-10T20:02:16.268Z,2.60
2023-01-10T20:04:48.935Z,2.67
2023-01-10T20:07:21.552Z,2.57
2023-01-10T20:09:58.553Z,2.79
2023-01-10T20:12:31.221Z,2.67
2023-01-10T20:15:04.195Z,2.50
2023-01-10T20:17:37.336Z,2.51
2023-01-10T20:20:10.556Z,2.47
2023-01-10T20:22:43.188Z,2.58
2023-01-10T20:25:15.983Z,2.89
2023-01-10T20:27:48.607Z,2.72
2023-01-10T20:30:21.450Z,2.65
2023-01-10T20:32:54.072Z,2.47
2023-01-10T20:35:26.726Z,2.46
2023-01-10T20:37:59.558Z,2.55
2023-01-10T20:40:32.175Z,2.89
2023-01-10T20:43:04.805Z,3.07
2023-01-10T20:45:37.485Z,2.74
2023-01-10T20:48:10.109Z,2.96
2023-01-10T20:50:43.303Z,2.83
2023-01-10T20:53:15.983Z,3.14
2023-01-10T20:55:59.053Z,2.88
2023-01-10T20:58:33.645Z,3.19
2023-01-10T21:01:08.166Z,3.03
2023-01-10T21:03:42.636Z,2.82
2023-01-10T21:06:18.509Z,2.80
2023-01-10T21:08:51.444Z,3.17
2023-01-10T21:11:24.437Z,2.90
2023-01-10T21:13:57.121Z,3.11
2023-01-10T21:16:29.830Z,2.84
2023-01-10T21:19:02.511Z,2.88
2023-01-10T21:21:35.266Z,3.20
2023-01-10T21:24:08.651Z,2.86
2023-01-10T21:26:41.511Z,2.97
2023-01-10T21:29:14.122Z,3.05
2023-01-10T21:31:46.790Z,3.10
2023-01-10T21:34:19.516Z,2.94
2023-01-10T21:36:52.144Z,2.95
2023-01-10T21:39:24.866Z,3.14
2023-01-10T21:41:57.491Z,3.15
2023-01-10T21:44:30.089Z,2.97
2023-01-10T21:47:03.059Z,3.04
2023-01-10T21:49:35.745Z,3.24
2023-01-10T21:52:08.322Z,3.35
2023-01-10T21:54:40.908Z,3.35
2023-01-10T21:57:13.518Z,2.99
2023-01-10T21:59:46.106Z,3.71
2023-01-10T22:02:21.212Z,4.18
2023-01-10T22:04:55.080Z,4.21
2023-01-10T22:07:29.182Z,4.29
2023-01-10T22:10:01.810Z,4.21
2023-01-10T22:12:34.486Z,4.16
2023-01-10T22:15:07.798Z,4.35
2023-01-10T22:17:40.451Z,4.62
2023-01-10T22:20:13.110Z,4.56
2023-01-10T22:22:45.742Z,4.26
2023-01-10T22:25:18.392Z,4.17
2023-01-10T22:27:51.010Z,4.17
2023-01-10T22:30:23.683Z,4.21
2023-01-10T22:32:57.522Z,4.01
2023-01-10T22:35:30.115Z,4.32
2023-01-10T22:38:02.746Z,4.23
2023-01-10T22:40:35.340Z,3.97
2023-01-10T22:43:07.982Z,4.65
2023-01-10T22:45:42.684Z,4.23
2023-01-10T22:48:15.342Z,4.24
2023-01-10T22:50:48.706Z,4.25
2023-01-10T22:53:21.804Z,4.56
2023-01-10T22:55:55.024Z,4.29
2023-01-10T22:58:28.694Z,4.61
2023-01-10T23:01:03.856Z,4.57
2023-01-10T23:03:36.480Z,4.16
2023-01-10T23:06:10.359Z,4.41
2023-01-10T23:08:43.370Z,3.78
2023-01-10T23:11:18.037Z,3.62
2023-01-10T23:13:50.591Z,3.22
2023-01-10T23:16:24.978Z,3.32
2023-01-10T23:18:58.132Z,3.16
2023-01-10T23:21:30.677Z,2.94
2023-01-10T23:24:03.224Z,3.20
2023-01-10T23:26:35.805Z,3.35
2023-01-10T23:29:08.415Z,3.52
2023-01-10T23:31:41.030Z,3.21
2023-01-10T23:34:13.566Z,3.04
2023-01-10T23:36:46.175Z,3.07
2023-01-10T23:39:18.835Z,3.20
2023-01-10T23:41:51.494Z,3.15
2023-01-10T23:44:24.018Z,3.30
2023-01-10T23:46:56.541Z,3.33
2023-01-10T23:49:29.070Z,3.35
2023-01-10T23:52:01.917Z,3.27
2023-01-10T23:54:34.473Z,3.23
2023-01-10T23:57:06.998Z,3.52
2023-01-10T23:59:39.528Z,3.28
